createdAt,value
2023-05-06T00:34:28.456Z,50
2023-05-06T06:03:30.662Z,15.7
2023-05-06T09:08:17.012Z,19.2
2023-05-06T11:51:47.521Z,23.3
2023-05-06T11:57:23.566Z,22.5
2023-05-06T12:42:33.937Z,23.6
2023-05-06T13:50:23.890Z,24.3
2023-05-06T13:56:02.259Z,23.9
2023-05-06T14:01:28.549Z,23.7
2023-05-06T14:07:16.732Z,23.8
2023-05-06T14:12:44.512Z,23.5
2023-05-06T14:18:37.787Z,23.4
2023-05-06T14:23:57.884Z,23.6
2023-05-06T14:51:58.706Z,22.5
2023-05-06T14:57:32.457Z,21.7
2023-05-06T15:03:29.575Z,22.1
2023-05-06T15:08:56.806Z,21.9
2023-05-06T15:14:41.451Z,21.4
2023-05-06T15:20:18.782Z,21.4
2023-05-06T15:25:43.618Z,22.1
2023-05-06T15:31:19.308Z,22.4
2023-05-06T15:37:06.405Z,21.9
2023-05-06T15:42:41.759Z,23.2
2023-05-06T15:48:14.355Z,23.6
2023-05-06T15:53:40.719Z,22.9
2023-05-06T15:59:20.190Z,22
2023-05-06T16:04:55.410Z,21.5
2023-05-06T16:10:52.554Z,21.1
2023-05-06T16:44:11.633Z,22.3
2023-05-06T16:50:03.964Z,22
2023-05-06T16:55:27.785Z,22
2023-05-06T17:18:17.660Z,22.1
2023-05-06T17:29:33.875Z,22.1
2023-05-06T17:34:52.713Z,21.8
2023-05-06T17:40:26.259Z,21.6
2023-05-06T17:52:01.619Z,20.8
2023-05-06T18:08:34.150Z,20.3
2023-05-06T18:13:59.268Z,20
2023-05-06T18:19:50.688Z,19.9
2023-05-06T18:25:10.004Z,19.5
2023-05-06T18:31:09.444Z,19.1
2023-05-06T18:36:45.898Z,18.8
2023-05-06T18:42:10.178Z,18.7
2023-05-06T18:53:09.753Z,18.4
2023-05-06T18:58:37.633Z,18.4
2023-05-06T19:04:36.277Z,18.6
2023-05-06T19:09:55.961Z,18.6
2023-05-06T19:15:20.767Z,18.4
2023-05-06T19:20:56.542Z,18.4
2023-05-06T19:26:40.399Z,18.5
2023-05-06T19:32:06.284Z,18
2023-05-06T19:43:33.230Z,17.5
2023-05-06T19:49:04.010Z,17.9
2023-05-06T19:54:21.974Z,17.4
2023-05-06T19:59:57.888Z,17
2023-05-06T20:05:44.487Z,17
2023-05-06T20:11:04.716Z,16.4
2023-05-06T20:16:35.211Z,16.8
2023-05-06T20:33:36.774Z,16.3
2023-05-06T20:39:16.430Z,16.2
2023-05-06T20:44:28.070Z,16.2
2023-05-06T20:50:00.602Z,16.1
2023-05-06T20:56:00.032Z,15.9
2023-05-06T21:01:14.804Z,16.1
2023-05-06T21:07:06.770Z,16.4
2023-05-06T21:23:46.964Z,16.5
2023-05-06T21:29:23.153Z,16.4
2023-05-06T21:34:48.900Z,16.2
2023-05-06T21:40:27.468Z,16.2
2023-05-06T21:45:50.134Z,16.4
2023-05-06T21:51:17.841Z,16.4
2023-05-06T21:56:48.124Z,16.1
2023-05-06T22:08:01.294Z,15.9
2023-05-06T22:13:48.310Z,15.6
2023-05-06T22:19:24.932Z,15.8
2023-05-06T22:24:56.076Z,15.7
2023-05-06T22:30:22.312Z,15.6
2023-05-06T22:35:50.507Z,15.5
2023-05-06T22:41:32.176Z,15.5
2023-05-06T22:46:57.350Z,15.3
2023-05-06T22:58:22.353Z,14.9
2023-05-06T23:03:33.065Z,14.8
2023-05-06T23:09:25.175Z,14.6
2023-05-06T23:14:47.725Z,14.5
2023-05-06T23:20:39.530Z,14.5
2023-05-06T23:25:57.125Z,14.4
2023-05-06T23:31:43.546Z,14.1
2023-05-06T23:36:56.421Z,14
2023-05-06T23:48:09.270Z,13.7
2023-05-06T23:53:58.768Z,13.6
2023-05-06T23:59:19.082Z,13.7
